M I D A S
Marine Information and Data Acquisition System
Tripno 1524 of the Zeeleeuw from 2008-07-23 06:49:50 to 2008-07-23 13:39:48
Back to CruiseResearch ActivitiesStationsMapUnderway DataData graphs

EquipmentUnitsComment
TimeDGPSUTC
LatitudeDGPSDM.mWGS84
LongitudeDGPSDM.mWGS84
HeadingGyrodeg 
SOGDGPSknotsSpeed over ground
COGDGPSdegCourse over ground
DepthEcho soundermeters200 kHz
Missing or incorrect values are displayed as -999
Navigation data collected by the RV Zeeleeuw from 2008-07-23 06:45:42 to 2008-07-23 13:44:32
Time Latitude Longitude Heading SOG COG Depth
2008-07-23 06:46:48 51°13.631 2°55.997 109.8 3.9 290 -999
2008-07-23 06:47:47 51°13.665 2°55.881 122.2 5.3 301 -999
2008-07-23 06:48:48 51°13.706 2°55.777 116.1 4.3 297 -999
2008-07-23 06:49:47 51°13.722 2°55.736 90.1 1.1 64 10.9
2008-07-23 06:50:48 51°13.716 2°55.71 49.9 1 247 -999
2008-07-23 06:51:47 51°13.749 2°55.707 345.9 4 341 10.9
2008-07-23 06:52:47 51°13.832 2°55.641 333.8 5.6 333 10.8
2008-07-23 06:53:46 51°13.919 2°55.572 332.4 6.3 332 10.9
2008-07-23 06:54:46 51°14.022 2°55.485 333.6 7.1 333 11.1
2008-07-23 06:55:45 51°14.127 2°55.403 333.9 7.1 332 11.1
2008-07-23 06:56:44 51°14.239 2°55.286 323.1 9 321 11
2008-07-23 06:57:43 51°14.354 2°55.083 311.6 11.6 310 11.3
2008-07-23 06:58:43 51°14.462 2°54.815 300.4 12.4 297 11.2
2008-07-23 06:59:43 51°14.554 2°54.516 302.4 12.7 299 10.8
2008-07-23 07:00:43 51°14.652 2°54.22 296.9 12.6 295 11
2008-07-23 07:01:43 51°14.75 2°53.924 300.4 12.4 298 10.2
2008-07-23 07:02:43 51°14.844 2°53.633 299.5 12.2 298 10
2008-07-23 07:03:43 51°14.903 2°53.321 285.3 12.4 284 10.2
2008-07-23 07:04:43 51°14.952 2°52.998 283 12.6 281 10.4
2008-07-23 07:05:43 51°15.001 2°52.674 285.7 12.6 284 10.5
2008-07-23 07:06:43 51°15.036 2°52.345 279 12.6 278 10.3
2008-07-23 07:07:43 51°15.063 2°52.011 279.8 12.7 280 10.9
2008-07-23 07:08:43 51°15.096 2°51.676 280.4 12.8 278 11.6
2008-07-23 07:09:43 51°15.159 2°51.357 299.7 12.6 299 11.9
2008-07-23 07:10:43 51°15.294 2°51.105 321.6 12.4 320 12.3
2008-07-23 07:11:43 51°15.423 2°50.979 336.5 7.5 332 12.6
2008-07-23 07:12:43 51°15.522 2°50.887 333.8 6.5 329 12.7
2008-07-23 07:13:43 51°15.612 2°50.796 331.2 6.3 327 12.9
2008-07-23 07:14:43 51°15.7 2°50.704 332 6.3 327 12.8
2008-07-23 07:15:43 51°15.824 2°50.58 332.3 11.2 329 12.6
2008-07-23 07:16:43 51°15.995 2°50.415 332.2 12.2 329 10.4
2008-07-23 07:17:43 51°16.169 2°50.246 330.9 12.3 328 9.9
2008-07-23 07:18:43 51°16.343 2°50.072 331 12.3 329 10.8
2008-07-23 07:19:44 51°16.52 2°49.896 328.9 12.3 326 11.5
2008-07-23 07:20:43 51°16.689 2°49.721 332.1 12.2 329 13.5
2008-07-23 07:21:44 51°16.864 2°49.546 330.6 12.1 328 9.2
2008-07-23 07:22:43 51°17.035 2°49.383 333.3 12.2 330 10.7
2008-07-23 07:23:43 51°17.213 2°49.221 333.8 12.4 330 11.4
2008-07-23 07:24:43 51°17.394 2°49.07 337.2 12.3 334 11.5
2008-07-23 07:25:43 51°17.575 2°48.919 334.5 12.3 331 11.6
2008-07-23 07:26:43 51°17.754 2°48.758 333 12.3 329 9.9
2008-07-23 07:27:43 51°17.927 2°48.582 331.8 12.4 328 9.8
2008-07-23 07:28:44 51°18.107 2°48.405 332.1 12.4 328 9.6
2008-07-23 07:29:43 51°18.28 2°48.233 332.6 12.5 329 10.2
2008-07-23 07:30:43 51°18.458 2°48.06 334 12.4 329 12.7
2008-07-23 07:31:43 51°18.636 2°47.891 333.5 12.4 329 14.3
2008-07-23 07:32:43 51°18.813 2°47.725 334.2 12.2 330 16.1
2008-07-23 07:33:43 51°18.99 2°47.561 334.3 12.3 331 18.1
2008-07-23 07:34:43 51°19.183 2°47.452 347.4 12.4 343 20.1
2008-07-23 07:35:43 51°19.38 2°47.35 345.6 12.4 341 20.8
2008-07-23 07:36:43 51°19.575 2°47.23 338.8 12.5 334 21
2008-07-23 07:37:43 51°19.744 2°47.048 323.9 12.1 321 20.5
2008-07-23 07:38:43 51°19.906 2°46.848 326.7 12.5 324 17.7
2008-07-23 07:39:43 51°20.071 2°46.647 326 12.6 323 15.8
2008-07-23 07:40:43 51°20.237 2°46.442 325.1 12.6 322 11.7
2008-07-23 07:41:43 51°20.404 2°46.239 326.3 12.5 323 19.1
2008-07-23 07:42:43 51°20.579 2°46.055 331.6 12.6 328 20.6
2008-07-23 07:43:43 51°20.76 2°45.887 333.8 12.6 330 24.3
2008-07-23 07:44:43 51°20.942 2°45.714 331.5 12.7 328 23.7
2008-07-23 07:45:43 51°21.12 2°45.534 331.2 12.6 327 25.4
2008-07-23 07:46:44 51°21.301 2°45.361 334 12.3 331 25.2
2008-07-23 07:47:43 51°21.479 2°45.201 333.5 12.5 330 23.3
2008-07-23 07:48:43 51°21.66 2°45.036 333 12.5 331 21.7
2008-07-23 07:49:43 51°21.838 2°44.864 329.9 12.5 328 21.2
2008-07-23 07:50:43 51°22.018 2°44.7 333.6 12.5 331 22
2008-07-23 07:51:43 51°22.199 2°44.538 333.1 12.5 331 23.4
2008-07-23 07:52:43 51°22.38 2°44.374 332.4 12.5 331 24.6
2008-07-23 07:53:44 51°22.562 2°44.203 331.7 12.5 330 25.8
2008-07-23 07:54:43 51°22.739 2°44.041 332.4 12.5 329 25.6
2008-07-23 07:55:44 51°22.919 2°43.87 332.9 12.4 330 23.8
2008-07-23 07:56:43 51°23.092 2°43.699 332.8 12.5 329 25.6
2008-07-23 07:57:44 51°23.263 2°43.501 323.8 12.5 319 25.5
2008-07-23 07:58:43 51°23.414 2°43.273 320.7 12.7 317 25.4
2008-07-23 07:59:43 51°23.571 2°43.048 322.5 12.7 318 26.6
2008-07-23 08:00:44 51°23.731 2°42.821 322.2 12.6 318 24.2
2008-07-23 08:01:43 51°23.884 2°42.6 320.4 12.5 317 23.1
2008-07-23 08:02:44 51°24.045 2°42.378 323.5 12.5 320 23.5
2008-07-23 08:03:43 51°24.207 2°42.173 327 12.6 324 26.4
2008-07-23 08:04:44 51°24.378 2°41.971 326.8 12.6 325 25.6
2008-07-23 08:05:43 51°24.54 2°41.77 324.3 12.5 322 26.4
2008-07-23 08:06:44 51°24.709 2°41.566 326.8 12.5 323 23.2
2008-07-23 08:07:43 51°24.872 2°41.37 327.4 12.5 324 25
2008-07-23 08:08:43 51°25.038 2°41.173 329.3 12.4 326 25.1
2008-07-23 08:09:44 51°25.216 2°40.999 331.2 12.3 327 24.7
2008-07-23 08:10:43 51°25.393 2°40.836 333.9 12.5 329 24.3
2008-07-23 08:11:44 51°25.573 2°40.665 331.9 12.5 331 27.3
2008-07-23 08:12:43 51°25.746 2°40.497 330.6 12.3 329 28
2008-07-23 08:13:44 51°25.926 2°40.328 333.6 12.4 331 29.5
2008-07-23 08:14:43 51°26.087 2°40.136 322.6 12.3 320 30.2
2008-07-23 08:15:44 51°26.235 2°39.885 314.8 12.8 311 29.4
2008-07-23 08:16:43 51°26.373 2°39.631 314.1 12.8 311 31.7
2008-07-23 08:17:43 51°26.511 2°39.374 314.9 12.7 312 34.5
2008-07-23 08:18:43 51°26.653 2°39.121 314.1 12.8 311 30.9
2008-07-23 08:19:43 51°26.795 2°38.867 314.3 12.7 312 31.1
2008-07-23 08:20:43 51°26.934 2°38.612 311.7 12.7 310 31.9
2008-07-23 08:21:43 51°27.072 2°38.356 312.8 12.8 313 32.1
2008-07-23 08:22:43 51°27.217 2°38.11 316.1 12.7 314 30.9
2008-07-23 08:23:43 51°27.363 2°37.863 315 12.7 314 31.8
2008-07-23 08:24:43 51°27.507 2°37.612 315.1 12.8 312 30.7
2008-07-23 08:25:43 51°27.648 2°37.359 312.7 12.7 312 32
2008-07-23 08:26:43 51°27.783 2°37.098 312.4 12.6 311 34.1
2008-07-23 08:27:43 51°27.947 2°36.896 334.1 12.5 331 34
2008-07-23 08:28:43 51°28.129 2°36.738 340.1 12.3 342 34.5
2008-07-23 08:29:44 51°28.332 2°36.672 354.2 12.2 351 34.8
2008-07-23 08:30:43 51°28.532 2°36.62 358.7 12.2 358 32
2008-07-23 08:31:43 51°28.732 2°36.644 9.4 12.1 5 28.9
2008-07-23 08:32:43 51°28.93 2°36.691 13.6 12.1 8 25.6
2008-07-23 08:33:43 51°29.124 2°36.766 20 11.9 15 24.9
2008-07-23 08:34:43 51°29.316 2°36.854 19.7 12.1 14 23.4
2008-07-23 08:35:43 51°29.508 2°36.935 20 11.9 16 23.3
2008-07-23 08:36:43 51°29.693 2°37.043 24.6 12 20 24.2
2008-07-23 08:37:43 51°29.882 2°37.151 24.1 12 20 22.7
2008-07-23 08:38:43 51°30.068 2°37.254 22.7 12 18 19.6
2008-07-23 08:39:43 51°30.255 2°37.356 22.9 11.9 18 17.9
2008-07-23 08:40:43 51°30.442 2°37.456 22.9 12 19 17.8
2008-07-23 08:41:43 51°30.632 2°37.546 20.2 11.8 15 19.1
2008-07-23 08:42:43 51°30.823 2°37.625 19.5 11.9 14 15.5
2008-07-23 08:43:43 51°31.014 2°37.698 21.3 11.7 15 13.4
2008-07-23 08:44:43 51°31.205 2°37.766 17.5 11.8 13 14.7
2008-07-23 08:45:44 51°31.397 2°37.852 21.7 11.8 16 15.9
2008-07-23 08:46:43 51°31.584 2°37.931 20.6 11.8 14 14.3
2008-07-23 08:47:44 51°31.778 2°38.019 23.4 11.7 18 14.4
2008-07-23 08:48:43 51°31.964 2°38.106 22.6 11.8 16 11.8
2008-07-23 08:49:43 51°32.153 2°38.197 22.4 11.8 17 14.2
2008-07-23 08:50:43 51°32.343 2°38.286 22.6 11.9 16 12.6
2008-07-23 08:51:43 51°32.533 2°38.376 21.6 12 15 14.8
2008-07-23 08:52:44 51°32.723 2°38.483 27.4 11.9 22 15.3
2008-07-23 08:53:43 51°32.905 2°38.59 26.2 11.9 21 14.6
2008-07-23 08:54:44 51°33.09 2°38.71 29.7 11.8 24 16.3
2008-07-23 08:55:43 51°33.267 2°38.835 26.7 11.8 21 14.5
2008-07-23 08:56:44 51°33.453 2°38.954 26.9 11.9 22 16.9
2008-07-23 08:57:43 51°33.632 2°39.075 27.4 11.8 23 19
2008-07-23 08:58:44 51°33.817 2°39.197 27.3 11.9 21 19.4
2008-07-23 08:59:44 51°33.997 2°39.33 30.6 11.8 26 20.3
2008-07-23 09:00:44 51°34.178 2°39.461 29.6 12 25 21.2
2008-07-23 09:01:44 51°34.358 2°39.595 29.7 11.9 25 19.5
2008-07-23 09:02:44 51°34.541 2°39.714 24.3 12 18 23
2008-07-23 09:03:44 51°34.729 2°39.82 23.1 12 19 23.1
2008-07-23 09:04:44 51°34.915 2°39.93 24.6 12 19 24
2008-07-23 09:05:43 51°35.099 2°40.037 24.6 11.9 20 22.3
2008-07-23 09:06:44 51°35.286 2°40.16 25.6 11.9 21 24.4
2008-07-23 09:07:43 51°35.47 2°40.265 22.4 12 17 25.5
2008-07-23 09:08:44 51°35.665 2°40.344 19.3 11.8 14 22.6
2008-07-23 09:09:43 51°35.849 2°40.433 21.4 11.7 16 20.4
2008-07-23 09:10:44 51°36.042 2°40.519 19.3 11.8 15 22.6
2008-07-23 09:11:43 51°36.229 2°40.598 19.2 11.8 14 22.4
2008-07-23 09:12:44 51°36.422 2°40.671 19.2 11.7 14 19.5
2008-07-23 09:13:43 51°36.606 2°40.755 22.3 11.6 17 18.1
2008-07-23 09:14:44 51°36.797 2°40.825 16.8 11.7 10 20.2
2008-07-23 09:15:43 51°36.985 2°40.876 15.7 11.6 8 15.6
2008-07-23 09:16:44 51°37.18 2°40.925 14.4 11.6 7 16.5
2008-07-23 09:17:44 51°37.371 2°40.971 13.1 11.7 8 20.9
2008-07-23 09:18:44 51°37.561 2°41.016 16.6 11.5 11 21.3
2008-07-23 09:19:44 51°37.751 2°41.063 14.8 11.5 7 19.7
2008-07-23 09:20:44 51°37.942 2°41.101 13.4 11.6 7 23.1
2008-07-23 09:21:44 51°38.133 2°41.139 11 11.5 6 24.2
2008-07-23 09:22:43 51°38.322 2°41.169 12.1 11.7 6 23.1
2008-07-23 09:23:44 51°38.517 2°41.213 13.2 11.6 8 19.8
2008-07-23 09:24:44 51°38.708 2°41.254 12.8 11.5 7 22.2
2008-07-23 09:25:44 51°38.899 2°41.286 8.5 11.6 3 22.7
2008-07-23 09:26:44 51°39.057 2°41.413 49.7 10.5 50 17.3
2008-07-23 09:27:44 51°39.093 2°41.696 84.6 11.3 87 22.2
2008-07-23 09:28:44 51°39.081 2°42 96.1 11.6 101 20.6
2008-07-23 09:29:44 51°39.051 2°42.308 95.4 11.7 100 28.7
2008-07-23 09:30:44 51°38.988 2°42.601 122.3 12.1 131 33
2008-07-23 09:31:44 51°38.832 2°42.817 142.2 12.6 149 34.2
2008-07-23 09:32:44 51°38.631 2°42.919 176.1 12.9 183 34.3
2008-07-23 09:33:44 51°38.414 2°42.878 183 13.3 186 34.3
2008-07-23 09:34:43 51°38.199 2°42.831 186.5 13.2 188 34.8
2008-07-23 09:35:44 51°37.979 2°42.754 190 13.2 192 34.9
2008-07-23 09:36:43 51°37.767 2°42.678 191.2 13.2 193 35
2008-07-23 09:37:44 51°37.549 2°42.594 190.4 13.3 192 35.1
2008-07-23 09:38:43 51°37.335 2°42.523 188 13.3 192 34.5
2008-07-23 09:39:44 51°37.113 2°42.447 190.5 13.7 192 34.9
2008-07-23 09:40:43 51°36.9 2°42.361 192.2 13.4 193 34.5
2008-07-23 09:41:44 51°36.678 2°42.273 190.8 13.6 194 35.6
2008-07-23 09:42:44 51°36.46 2°42.199 187.9 13.5 188 35.1
2008-07-23 09:43:44 51°36.241 2°42.126 189.6 13.3 195 36.2
2008-07-23 09:44:44 51°36.023 2°42.045 189.6 13.5 192 38.8
2008-07-23 09:45:44 51°35.805 2°41.961 191.5 13.4 197 39.4
2008-07-23 09:46:44 51°35.587 2°41.877 189.6 13.6 193 39.6
2008-07-23 09:47:44 51°35.368 2°41.791 192.1 13.6 195 38.6
2008-07-23 09:48:44 51°35.148 2°41.698 191.2 13.7 195 37.6
2008-07-23 09:49:44 51°34.927 2°41.619 189 13.7 191 39.4
2008-07-23 09:50:44 51°34.706 2°41.532 190.8 13.7 195 39.2
2008-07-23 09:51:44 51°34.486 2°41.446 188.7 13.5 193 38.3
2008-07-23 09:52:44 51°34.264 2°41.367 189.3 13.6 193 37.7
2008-07-23 09:53:44 51°34.086 2°41.481 134.8 12.3 144 38.2
2008-07-23 09:54:44 51°33.919 2°41.682 136.4 12.6 145 34.7
2008-07-23 09:55:44 51°33.743 2°41.865 142.1 12.6 150 34.7
2008-07-23 09:56:44 51°33.541 2°41.974 169.8 13.2 176 34.8
2008-07-23 09:57:44 51°33.335 2°41.85 209.6 13.4 210 33.7
2008-07-23 09:58:44 51°33.147 2°41.64 218.2 13.9 218 35
2008-07-23 09:59:44 51°32.967 2°41.411 217.9 13.7 217 36.9
2008-07-23 10:00:44 51°32.79 2°41.179 220.5 13.9 219 35
2008-07-23 10:01:44 51°32.608 2°40.962 206.2 13.4 204 34.6
2008-07-23 10:02:44 51°32.412 2°41.009 140.8 11.7 143 36
2008-07-23 10:03:44 51°32.403 2°41.244 48.4 9.1 41 35.6
2008-07-23 10:04:44 51°32.564 2°41.333 17.3 10.7 11 35.3
2008-07-23 10:05:44 51°32.738 2°41.395 19.5 10.8 13 35.3
2008-07-23 10:06:44 51°32.908 2°41.478 22.2 10.7 17 36.8
2008-07-23 10:07:44 51°33.075 2°41.572 25.3 10.5 19 34.5
2008-07-23 10:08:44 51°33.243 2°41.654 23.2 10.6 18 35
2008-07-23 10:09:44 51°33.41 2°41.741 23.3 10.6 17 33.4
2008-07-23 10:10:44 51°33.579 2°41.823 23.7 10.6 17 36.1
2008-07-23 10:11:44 51°33.747 2°41.904 24.3 10.6 17 32.1
2008-07-23 10:12:44 51°33.913 2°41.995 24.8 10.5 18 35.9
2008-07-23 10:13:44 51°34.082 2°42.074 24.6 10.6 15 36.9
2008-07-23 10:14:44 51°34.248 2°42.16 25.4 10.5 18 37.3
2008-07-23 10:15:44 51°34.415 2°42.25 25.3 10.4 19 36.6
2008-07-23 10:16:44 51°34.58 2°42.338 28.7 10.5 19 37.1
2008-07-23 10:17:44 51°34.746 2°42.425 27.8 10.5 20 38
2008-07-23 10:18:44 51°34.911 2°42.505 26 10.4 18 37.9
2008-07-23 10:19:44 51°35.075 2°42.594 28.1 10.3 18 39
2008-07-23 10:20:44 51°35.24 2°42.681 26 10.5 16 39.3
2008-07-23 10:21:44 51°35.407 2°42.756 24.3 10.5 16 38.6
2008-07-23 10:22:44 51°35.575 2°42.829 25.5 10.5 15 39.4
2008-07-23 10:23:44 51°35.742 2°42.905 25.9 10.4 17 38.1
2008-07-23 10:24:44 51°35.906 2°42.989 29.2 10.4 20 44.7
2008-07-23 10:25:44 51°36.071 2°43.083 29 10.4 19 40.2
2008-07-23 10:26:44 51°36.232 2°43.178 29.4 10.2 20 35.8
2008-07-23 10:27:44 51°36.392 2°43.28 30.4 10.4 21 38.5
2008-07-23 10:28:44 51°36.553 2°43.387 31 10.4 23 37.7
2008-07-23 10:29:44 51°36.713 2°43.486 30.3 10.4 22 34.7
2008-07-23 10:30:44 51°36.874 2°43.585 28.1 10.4 19 33.2
2008-07-23 10:31:44 51°37.035 2°43.683 30 10.4 22 31.2
2008-07-23 10:32:44 51°37.196 2°43.786 28.7 10.4 20 37.7
2008-07-23 10:33:44 51°37.36 2°43.877 27.5 10.3 19 34.9
2008-07-23 10:34:44 51°37.521 2°43.972 27.7 10.4 19 36.2
2008-07-23 10:35:44 51°37.683 2°44.073 28.3 10.4 20 34.2
2008-07-23 10:36:44 51°37.845 2°44.173 30.1 10.4 23 32.8
2008-07-23 10:37:44 51°38.005 2°44.28 29.4 10.6 22 32.7
2008-07-23 10:38:44 51°38.163 2°44.394 30.4 10.4 24 30.3
2008-07-23 10:39:44 51°38.322 2°44.5 29.6 10.4 21 29.5
2008-07-23 10:40:44 51°38.481 2°44.602 29.9 10.3 24 33
2008-07-23 10:41:44 51°38.643 2°44.7 25.1 10.3 18 31.5
2008-07-23 10:42:44 51°38.805 2°44.79 27.2 10.2 21 36.4
2008-07-23 10:43:44 51°38.967 2°44.883 25.3 10.4 19 34.1
2008-07-23 10:44:44 51°39.129 2°44.976 25.8 10.3 19 32.2
2008-07-23 10:45:44 51°39.29 2°45.07 27.7 10.3 21 30.9
2008-07-23 10:46:44 51°39.451 2°45.166 27.3 10.2 22 36.4
2008-07-23 10:47:44 51°39.612 2°45.263 24.8 10.3 19 35.8
2008-07-23 10:48:44 51°39.775 2°45.354 24.8 10.3 19 35.1
2008-07-23 10:49:44 51°39.935 2°45.448 25.5 10.3 20 31.5
2008-07-23 10:50:44 51°40.095 2°45.547 25.7 10.3 21 35.4
2008-07-23 10:51:44 51°40.254 2°45.648 26 10.3 22 37.1
2008-07-23 10:52:44 51°40.413 2°45.752 28 10.2 24 35
2008-07-23 10:53:44 51°40.569 2°45.864 27.3 10.4 23 36.6
2008-07-23 10:54:44 51°40.728 2°45.973 27.9 10.4 24 37.8
2008-07-23 10:55:44 51°40.888 2°46.077 24.8 10.3 21 33.2
2008-07-23 10:56:44 51°41.045 2°46.188 27.5 10.3 24 35.5
2008-07-23 10:57:44 51°41.205 2°46.292 25.8 10.4 23 36.4
2008-07-23 10:58:44 51°41.362 2°46.408 27.5 10.4 25 37.3
2008-07-23 10:59:44 51°41.52 2°46.519 24.3 10.3 22 36.5
2008-07-23 11:00:44 51°41.681 2°46.621 25.7 10.5 24 34.6
2008-07-23 11:01:44 51°41.835 2°46.737 27.5 10.1 24 34.4
2008-07-23 11:02:44 51°41.991 2°46.855 31.5 10.4 37 31.9
2008-07-23 11:03:44 51°42.064 2°47.094 78.7 10.7 89 35
2008-07-23 11:04:44 51°42.007 2°47.348 106.8 7.9 121 31.1
2008-07-23 11:05:44 51°41.949 2°47.481 104.7 5.1 126 29.3
2008-07-23 11:06:44 51°41.905 2°47.582 100.8 4.3 125 30.8
2008-07-23 11:07:44 51°41.866 2°47.678 99.3 5 118 31.1
2008-07-23 11:08:44 51°41.8 2°47.896 111 11.3 123 31.6
2008-07-23 11:09:44 51°41.65 2°48.11 137.4 12.6 150 28.5
2008-07-23 11:10:44 51°41.454 2°48.246 147.7 12.9 156 27.3
2008-07-23 11:11:44 51°41.256 2°48.374 146.2 12.7 159 23.3
2008-07-23 11:12:44 51°41.049 2°48.479 151.9 13.1 164 25.5
2008-07-23 11:13:44 51°40.83 2°48.496 173.4 13.5 186 24.5
2008-07-23 11:14:44 51°40.604 2°48.457 177.4 14.1 187 21.8
2008-07-23 11:15:44 51°40.38 2°48.418 175.9 13.5 187 17.9
2008-07-23 11:16:43 51°40.158 2°48.354 179.4 13.6 190 22.7
2008-07-23 11:17:44 51°39.93 2°48.284 181.2 13.9 193 22.6
2008-07-23 11:18:44 51°39.705 2°48.221 178.9 13.8 191 22.5
2008-07-23 11:19:44 51°39.48 2°48.15 179.2 13.5 192 19.9
2008-07-23 11:20:44 51°39.255 2°48.08 178.3 14 192 18.7
2008-07-23 11:21:44 51°39.031 2°48.007 179.2 13.5 191 23.4
2008-07-23 11:22:44 51°38.806 2°47.936 176.7 13.5 191 22.5
2008-07-23 11:23:44 51°38.581 2°47.864 179.5 13.8 189 22
2008-07-23 11:24:44 51°38.357 2°47.784 180.8 13.4 191 22.4
2008-07-23 11:25:44 51°38.132 2°47.698 180.7 13.9 192 21.3
2008-07-23 11:26:44 51°37.909 2°47.618 177 13.4 192 16.4
2008-07-23 11:27:44 51°37.688 2°47.535 180.8 13.7 193 18.8
2008-07-23 11:28:44 51°37.465 2°47.458 177.9 13.9 190 18.2
2008-07-23 11:29:44 51°37.245 2°47.361 186.1 13.7 201 16.7
2008-07-23 11:30:44 51°37.028 2°47.233 185.1 14.2 200 15.2
2008-07-23 11:31:44 51°36.812 2°47.104 187.2 13.8 202 17.7
2008-07-23 11:32:44 51°36.599 2°46.953 194.4 14 205 18.3
2008-07-23 11:33:44 51°36.388 2°46.792 193.8 14 209 17.1
2008-07-23 11:34:43 51°36.182 2°46.642 190.7 14 202 16.9
2008-07-23 11:35:43 51°35.971 2°46.49 191.4 13.9 206 15.4
2008-07-23 11:36:44 51°35.756 2°46.337 191.7 14 205 13.7
2008-07-23 11:37:44 51°35.547 2°46.185 192.7 14 203 14.7
2008-07-23 11:38:44 51°35.337 2°46.026 195.2 14.1 204 16.6
2008-07-23 11:39:44 51°35.131 2°45.851 199.3 14.2 210 15
2008-07-23 11:40:44 51°34.923 2°45.686 194.5 13.9 205 14.4
2008-07-23 11:41:44 51°34.715 2°45.525 195.3 13.8 204 12.3
2008-07-23 11:42:44 51°34.512 2°45.355 197.2 13.9 208 13.5
2008-07-23 11:43:44 51°34.306 2°45.19 196.5 14 205 13.9
2008-07-23 11:44:44 51°34.097 2°45.034 196.4 13.6 203 13.6
2008-07-23 11:45:44 51°33.891 2°44.87 195.7 13.8 205 13.9
2008-07-23 11:46:44 51°33.682 2°44.708 194.5 14.1 204 15
2008-07-23 11:47:44 51°33.473 2°44.556 195.7 13.8 204 15.5
2008-07-23 11:48:44 51°33.266 2°44.396 198.9 13.6 207 16.1
2008-07-23 11:49:44 51°33.057 2°44.237 195.8 13.8 202 17.1
2008-07-23 11:50:44 51°32.846 2°44.091 196.1 13.8 207 15.2
2008-07-23 11:51:44 51°32.635 2°43.945 195.1 13.6 203 17.8
2008-07-23 11:52:44 51°32.427 2°43.791 197.8 13.8 207 15.1
2008-07-23 11:53:44 51°32.217 2°43.638 196.6 13.8 202 19.9
2008-07-23 11:54:44 51°32.006 2°43.497 197.3 13.5 204 19.7
2008-07-23 11:55:44 51°31.791 2°43.375 192.6 13.7 196 22.6
2008-07-23 11:56:44 51°31.573 2°43.267 190.1 13.6 197 24.3
2008-07-23 11:57:44 51°31.355 2°43.175 179.8 13.4 187 22.8
2008-07-23 11:58:44 51°31.136 2°43.202 163.9 13.3 173 26.5
2008-07-23 11:59:44 51°30.917 2°43.256 160.2 13 166 28.4
2008-07-23 12:00:44 51°30.707 2°43.345 153.2 12.9 162 29.3
2008-07-23 12:01:44 51°30.502 2°43.453 156.1 13.2 165 26.8
2008-07-23 12:02:44 51°30.289 2°43.536 161.2 13.1 164 31
2008-07-23 12:03:44 51°30.075 2°43.611 161 13 168 28
2008-07-23 12:04:44 51°29.862 2°43.692 160.7 13 166 30.6
2008-07-23 12:05:44 51°29.652 2°43.774 159.9 13.1 166 30.6
2008-07-23 12:06:44 51°29.442 2°43.858 158.9 13 165 30.2
2008-07-23 12:07:44 51°29.234 2°43.949 161.4 12.9 165 29.1
2008-07-23 12:08:44 51°29.025 2°44.032 160.5 13.1 164 28
2008-07-23 12:09:44 51°28.819 2°44.125 160.9 12.9 164 30
2008-07-23 12:10:44 51°28.611 2°44.212 160.3 12.9 164 30.3
2008-07-23 12:11:44 51°28.408 2°44.307 160.3 12.6 165 30.2
2008-07-23 12:12:44 51°28.206 2°44.405 159.5 12.8 164 28.1
2008-07-23 12:13:44 51°28 2°44.489 161.7 12.9 166 28.1
2008-07-23 12:14:44 51°27.795 2°44.575 161.5 12.9 165 26.3
2008-07-23 12:15:44 51°27.59 2°44.66 161.9 12.7 163 26
2008-07-23 12:16:44 51°27.386 2°44.738 161 12.6 167 26.3
2008-07-23 12:17:44 51°27.181 2°44.814 160.6 12.7 165 27.5
2008-07-23 12:18:44 51°26.977 2°44.891 159.6 12.5 166 28.1
2008-07-23 12:19:44 51°26.771 2°44.966 159.8 12.7 167 27.7
2008-07-23 12:20:44 51°26.566 2°45.049 159.9 12.7 166 27.8
2008-07-23 12:21:44 51°26.361 2°45.129 157.6 12.6 166 27.1
2008-07-23 12:22:44 51°26.155 2°45.213 161.7 12.9 166 26.4
2008-07-23 12:23:44 51°25.952 2°45.312 154.9 12.8 159 26.2
2008-07-23 12:24:44 51°25.755 2°45.427 156.7 12.7 161 24.8
2008-07-23 12:25:43 51°25.555 2°45.527 157.8 12.8 164 25.5
2008-07-23 12:26:44 51°25.352 2°45.645 154.9 12.7 160 23.7
2008-07-23 12:27:44 51°25.152 2°45.761 155.1 12.9 160 25.1
2008-07-23 12:28:44 51°24.962 2°45.898 147.5 12.3 154 24.8
2008-07-23 12:29:44 51°24.772 2°46.022 151.5 12.3 155 24.4
2008-07-23 12:30:44 51°24.584 2°46.141 149.7 12.2 157 25.1
2008-07-23 12:31:44 51°24.399 2°46.267 148 11.9 157 27.6
2008-07-23 12:32:44 51°24.211 2°46.392 149.4 12.3 158 29.6
2008-07-23 12:33:44 51°24.021 2°46.515 149.9 12.4 154 28.2
2008-07-23 12:34:44 51°23.832 2°46.639 149.5 12.3 157 27.3
2008-07-23 12:35:44 51°23.645 2°46.773 148.9 12.3 156 23.9
2008-07-23 12:36:44 51°23.448 2°46.878 160.6 12.7 168 22.3
2008-07-23 12:37:44 51°23.241 2°46.947 163.3 12.7 169 22.8
2008-07-23 12:38:44 51°23.036 2°47.029 159 12.6 165 20.1
2008-07-23 12:39:44 51°22.832 2°47.115 158.6 12.7 167 20
2008-07-23 12:40:44 51°22.626 2°47.203 157 12.8 162 18.5
2008-07-23 12:41:44 51°22.431 2°47.325 151.4 12.6 161 16.5
2008-07-23 12:42:44 51°22.239 2°47.461 148.8 12.6 155 20.5
2008-07-23 12:43:44 51°22.047 2°47.597 148.6 12.5 156 23.9
2008-07-23 12:44:44 51°21.863 2°47.748 145.1 12.4 149 23.5
2008-07-23 12:45:44 51°21.679 2°47.899 148.2 12.4 153 23.4
2008-07-23 12:46:44 51°21.496 2°48.041 147.7 12.2 156 23.2
2008-07-23 12:47:44 51°21.312 2°48.181 144.8 12.2 153 22
2008-07-23 12:48:44 51°21.129 2°48.325 146.1 12.3 156 20.5
2008-07-23 12:49:44 51°20.946 2°48.461 144.2 11.8 149 20.4
2008-07-23 12:50:44 51°20.77 2°48.606 143.7 12.1 152 21.7
2008-07-23 12:51:44 51°20.595 2°48.758 144.3 12.2 153 22.6
2008-07-23 12:52:44 51°20.418 2°48.904 143 11.9 152 22.7
2008-07-23 12:53:44 51°20.247 2°49.065 140.6 11.9 151 22.7
2008-07-23 12:54:44 51°20.075 2°49.225 141.6 12 153 20.9
2008-07-23 12:55:44 51°19.905 2°49.391 140.2 11.9 148 18.6
2008-07-23 12:56:44 51°19.734 2°49.556 141.2 12.1 152 16.4
2008-07-23 12:57:44 51°19.563 2°49.721 139.2 12.1 147 14.2
2008-07-23 12:58:44 51°19.392 2°49.888 142.2 12.1 148 13.3
2008-07-23 12:59:44 51°19.22 2°50.054 141.7 12.1 148 12.1
2008-07-23 13:00:44 51°19.095 2°50.283 111 11.5 117 13.2
2008-07-23 13:01:44 51°19.039 2°50.511 100.3 5.6 110 14.5
2008-07-23 13:02:44 51°19.028 2°50.551 41.4 1.5 206 14.7
2008-07-23 13:03:47 51°19.022 2°50.537 1.5 1.8 335 14.9
2008-07-23 13:04:45 51°19.032 2°50.491 291.1 1.3 241 14.6
2008-07-23 13:05:44 51°19.019 2°50.462 270.2 1.4 228 14.7
2008-07-23 13:06:44 51°19.004 2°50.434 262.3 1.4 230 14.4
2008-07-23 13:07:44 51°18.982 2°50.376 250.5 3.6 243 14.3
2008-07-23 13:08:44 51°18.919 2°50.292 218.4 4.9 219 14.2
2008-07-23 13:09:44 51°18.877 2°50.232 236.2 2.8 227 14.2
2008-07-23 13:10:44 51°18.85 2°50.183 242.9 2.3 234 13.8
2008-07-23 13:11:44 51°18.827 2°50.14 249.2 2 233 13.8
2008-07-23 13:12:44 51°18.776 2°50.092 184.5 5.1 184 13.8
2008-07-23 13:13:44 51°18.671 2°50.199 132.8 10.7 138 14.9
2008-07-23 13:14:44 51°18.521 2°50.411 132.5 12.5 142 14.9
2008-07-23 13:15:44 51°18.364 2°50.625 133.5 12.4 136 14.6
2008-07-23 13:16:44 51°18.206 2°50.834 134.2 12.2 134 13.8
2008-07-23 13:17:44 51°18.056 2°51.057 130.5 12.3 135 12.8
2008-07-23 13:18:44 51°17.906 2°51.277 132 12.4 137 11.5
2008-07-23 13:19:44 51°17.733 2°51.454 149.8 12.3 156 10.7
2008-07-23 13:20:44 51°17.54 2°51.588 152.1 12.5 156 10.7
2008-07-23 13:21:44 51°17.346 2°51.721 152.6 12.6 157 12
2008-07-23 13:22:44 51°17.152 2°51.855 153.2 13 158 11.8
2008-07-23 13:23:44 51°16.965 2°52.002 147.7 12.6 152 11.4
2008-07-23 13:24:44 51°16.788 2°52.175 145 12.6 149 10.9
2008-07-23 13:25:44 51°16.608 2°52.344 146.5 12.3 150 11.8
2008-07-23 13:26:44 51°16.425 2°52.504 148.4 12.7 153 12.9
2008-07-23 13:27:44 51°16.239 2°52.664 148.5 12.8 151 12.9
2008-07-23 13:28:44 51°16.054 2°52.822 148.7 12.4 152 12.9
2008-07-23 13:29:44 51°15.88 2°52.991 145.6 12.3 145 12.6
2008-07-23 13:30:44 51°15.709 2°53.168 146.5 12.2 148 12.2
2008-07-23 13:31:44 51°15.536 2°53.34 145.8 12.1 148 11.8
2008-07-23 13:32:44 51°15.367 2°53.52 142.6 11.9 146 11.3
2008-07-23 13:33:44 51°15.196 2°53.695 144.8 12.3 148 10.7
2008-07-23 13:34:44 51°15.031 2°53.883 141.1 11.9 143 10.8
2008-07-23 13:35:44 51°14.87 2°54.08 140.2 12.1 143 10.6
2008-07-23 13:36:44 51°14.722 2°54.292 130.6 12 130 11.4
2008-07-23 13:37:44 51°14.591 2°54.534 129 12.1 129 11.5
2008-07-23 13:38:44 51°14.472 2°54.795 125.6 12.2 126 12.5
2008-07-23 13:39:44 51°14.349 2°55.057 123.7 12.3 125 12
2008-07-23 13:40:44 51°14.254 2°55.259 131.3 7.9 133 12.2
2008-07-23 13:41:44 51°14.168 2°55.37 148.6 5.7 149 12.3
2008-07-23 13:42:44 51°14.091 2°55.431 154.5 4.9 156 12
2008-07-23 13:43:48 51°14 2°55.498 153.8 6.7 155 -999